createdAt,value
2023-04-25T00:00:13.764Z,10.19
2023-04-25T00:02:43.956Z,10.15
2023-04-25T00:05:15.547Z,10.11
2023-04-25T00:07:45.855Z,10.08
2023-04-25T00:10:15.504Z,10.07
2023-04-25T00:12:46.491Z,10.06
2023-04-25T00:15:16.300Z,10.05
2023-04-25T00:17:46.900Z,10.03
2023-04-25T00:20:16.819Z,10.01
2023-04-25T00:22:46.522Z,9.98
2023-04-25T00:25:16.631Z,9.97
2023-04-25T00:27:46.257Z,9.98
2023-04-25T00:30:15.934Z,9.85
2023-04-25T00:32:45.800Z,9.79
2023-04-25T00:35:16.811Z,9.78
2023-04-25T00:37:46.129Z,9.76
2023-04-25T00:40:15.331Z,9.74
2023-04-25T00:42:44.238Z,9.73
2023-04-25T00:45:18.070Z,9.71
2023-04-25T00:47:48.269Z,9.70
2023-04-25T00:50:17.732Z,9.71
2023-04-25T00:52:47.500Z,9.68
2023-04-25T00:55:16.823Z,9.66
2023-04-25T00:57:46.060Z,9.64
2023-04-25T01:00:16.253Z,9.60
2023-04-25T01:02:47.172Z,9.58
2023-04-25T01:05:19.766Z,9.59
2023-04-25T01:07:49.746Z,9.56
2023-04-25T01:10:19.889Z,9.51
2023-04-25T01:12:52.161Z,9.51
2023-04-25T01:15:22.286Z,9.52
2023-04-25T01:17:51.493Z,9.54
2023-04-25T01:20:24.003Z,9.56
2023-04-25T01:22:54.396Z,9.57
2023-04-25T01:25:25.178Z,9.52
2023-04-25T01:27:54.841Z,9.51
2023-04-25T01:30:24.969Z,9.52
2023-04-25T01:32:57.038Z,9.54
2023-04-25T01:35:26.689Z,9.52
2023-04-25T01:38:00.327Z,9.51
2023-04-25T01:40:29.910Z,9.50
2023-04-25T01:43:00.866Z,9.49
2023-04-25T01:45:31.205Z,9.48
2023-04-25T01:48:01.064Z,9.42
2023-04-25T01:50:32.235Z,9.40
2023-04-25T01:53:02.703Z,9.41
2023-04-25T01:55:32.048Z,9.37
2023-04-25T01:58:05.860Z,9.32
2023-04-25T02:00:53.910Z,9.27
2023-04-25T02:03:23.605Z,9.25
2023-04-25T02:05:54.418Z,9.24
2023-04-25T02:08:26.498Z,9.19
2023-04-25T02:10:58.082Z,9.17
2023-04-25T02:13:30.472Z,9.16
2023-04-25T02:16:01.188Z,9.16
2023-04-25T02:18:31.144Z,9.15
2023-04-25T02:21:04.470Z,9.15
2023-04-25T02:23:33.600Z,9.16
2023-04-25T02:26:03.270Z,9.18
2023-04-25T02:28:32.460Z,9.19
2023-04-25T02:31:01.338Z,9.17
2023-04-25T02:33:30.700Z,9.16
2023-04-25T02:36:00.801Z,9.17
2023-04-25T02:38:30.667Z,9.19
2023-04-25T02:41:00.199Z,9.23
2023-04-25T02:43:30.287Z,9.21
2023-04-25T02:46:00.504Z,9.19
2023-04-25T02:48:30.199Z,9.20
2023-04-25T02:51:01.548Z,9.23
2023-04-25T02:53:32.399Z,9.20
2023-04-25T02:56:02.076Z,9.18
2023-04-25T02:58:33.054Z,9.21
2023-04-25T03:01:02.757Z,9.24
2023-04-25T03:03:33.756Z,9.23
2023-04-25T03:06:04.039Z,9.20
2023-04-25T03:08:35.389Z,9.17
2023-04-25T03:11:05.944Z,9.16
2023-04-25T03:13:36.945Z,9.15
2023-04-25T03:16:07.622Z,9.16
2023-04-25T03:18:37.641Z,9.15
2023-04-25T03:21:06.679Z,9.15
2023-04-25T03:23:36.142Z,9.12
2023-04-25T03:26:05.430Z,9.12
2023-04-25T03:28:35.079Z,9.11
2023-04-25T03:31:05.422Z,9.14
2023-04-25T03:33:34.397Z,9.17
2023-04-25T03:36:04.605Z,9.20
2023-04-25T03:38:34.117Z,9.21
2023-04-25T03:41:03.554Z,9.23
2023-04-25T03:43:47.472Z,9.20
2023-04-25T03:46:16.546Z,9.21
2023-04-25T03:48:46.113Z,9.19
2023-04-25T03:51:17.266Z,9.23
2023-04-25T03:53:47.596Z,9.25
2023-04-25T03:56:22.743Z,9.26
2023-04-25T03:58:53.720Z,9.28
2023-04-25T04:01:23.393Z,9.35
2023-04-25T04:03:52.665Z,9.42
2023-04-25T04:06:22.597Z,9.48
2023-04-25T04:08:53.662Z,9.55
2023-04-25T04:11:22.953Z,9.63
2023-04-25T04:13:53.422Z,9.69
2023-04-25T04:16:22.719Z,9.78
2023-04-25T04:18:52.852Z,9.87
2023-04-25T04:21:22.324Z,9.97
2023-04-25T04:23:52.541Z,10.07
2023-04-25T04:26:27.562Z,10.18
2023-04-25T04:29:00.104Z,10.27
2023-04-25T04:31:40.828Z,10.35
2023-04-25T04:34:10.248Z,10.46
2023-04-25T04:36:41.234Z,10.55
2023-04-25T04:39:11.637Z,10.63
2023-04-25T04:41:44.199Z,10.72
2023-04-25T04:44:18.527Z,10.82
2023-04-25T04:47:03.072Z,10.92
2023-04-25T04:49:52.064Z,11.01
2023-04-25T04:52:36.509Z,11.14
2023-04-25T04:55:09.251Z,11.24
2023-04-25T04:57:40.565Z,11.31
2023-04-25T05:00:19.169Z,11.40
2023-04-25T05:02:54.572Z,11.48
2023-04-25T05:05:32.653Z,11.56
2023-04-25T05:08:04.332Z,11.62
2023-04-25T05:41:14.000Z,13.25
2023-04-25T05:43:48.212Z,13.16
2023-04-25T05:46:44.004Z,13.15
2023-04-25T05:49:19.707Z,13.09
2023-04-25T05:52:03.688Z,13.07
2023-04-25T05:54:35.899Z,13.07
2023-04-25T05:57:05.729Z,13.07
2023-04-25T05:59:36.767Z,13.05
2023-04-25T06:02:07.961Z,13.05
2023-04-25T06:04:38.953Z,13.04
2023-04-25T06:07:08.656Z,13.05
2023-04-25T06:09:40.072Z,13.08
2023-04-25T06:12:10.674Z,13.10
2023-04-25T06:14:42.046Z,13.15
2023-04-25T06:17:12.201Z,13.19
2023-04-25T06:19:41.495Z,13.25
2023-04-25T06:22:12.221Z,13.30
2023-04-25T06:24:43.007Z,13.36
2023-04-25T06:27:12.695Z,13.40
2023-04-25T06:29:44.296Z,13.47
2023-04-25T06:32:13.542Z,13.66
2023-04-25T06:34:45.245Z,13.99
2023-04-25T06:37:14.546Z,14.42
2023-04-25T06:39:44.332Z,14.95
2023-04-25T06:42:13.716Z,15.50
2023-04-25T06:44:44.294Z,15.97
2023-04-25T07:00:54.541Z,19.32
2023-04-25T07:03:26.975Z,19.46
2023-04-25T07:05:59.306Z,19.69
2023-04-25T07:08:30.335Z,19.90
2023-04-25T07:11:01.834Z,20.11
2023-04-25T07:13:31.825Z,20.31
2023-04-25T07:16:01.448Z,20.56
2023-04-25T07:18:31.955Z,20.65
2023-04-25T07:21:02.666Z,20.71
2023-04-25T07:23:32.374Z,20.79
2023-04-25T07:26:02.915Z,20.89
2023-04-25T07:28:34.056Z,21.15
2023-04-25T07:31:03.348Z,21.39
2023-04-25T07:33:35.863Z,21.46
2023-04-25T07:36:05.748Z,21.50
2023-04-25T07:38:34.588Z,21.51
2023-04-25T07:41:04.633Z,21.57
2023-04-25T07:43:34.519Z,21.68
2023-04-25T07:46:04.623Z,21.95
2023-04-25T07:48:35.475Z,22.09
2023-04-25T07:51:05.826Z,22.10
2023-04-25T07:53:38.442Z,22.11
2023-04-25T07:56:10.401Z,22.09
2023-04-25T07:58:41.694Z,22.02
2023-04-25T08:01:13.017Z,22.01
2023-04-25T08:03:43.881Z,22.08
2023-04-25T08:06:17.266Z,22.16
2023-04-25T08:08:57.837Z,22.42
2023-04-25T08:11:28.628Z,22.62
2023-04-25T08:14:00.064Z,22.75
2023-04-25T08:16:31.137Z,22.85
2023-04-25T08:19:01.400Z,22.94
2023-04-25T08:21:32.202Z,23.02
2023-04-25T08:24:05.743Z,22.99
2023-04-25T08:26:38.150Z,23.02
2023-04-25T08:29:08.221Z,23.05
2023-04-25T08:31:38.903Z,23.10
2023-04-25T08:34:08.599Z,23.19
2023-04-25T08:36:40.981Z,23.31
2023-04-25T08:39:21.607Z,23.33
2023-04-25T08:41:53.481Z,23.21
2023-04-25T08:44:24.542Z,23.31
2023-04-25T08:46:54.042Z,23.27
2023-04-25T08:49:34.825Z,23.36
2023-04-25T08:52:07.103Z,23.29
2023-04-25T08:54:38.970Z,23.25
2023-04-25T08:57:10.110Z,23.09
2023-04-25T08:59:41.373Z,22.93
2023-04-25T09:02:12.822Z,22.90
2023-04-25T09:04:44.740Z,22.86
2023-04-25T09:07:16.201Z,22.71
2023-04-25T09:09:46.415Z,22.55
2023-04-25T09:12:19.585Z,22.42
2023-04-25T09:15:10.681Z,22.37
2023-04-25T09:17:58.704Z,22.30
2023-04-25T09:20:31.647Z,22.04
2023-04-25T09:23:06.207Z,21.81
2023-04-25T09:25:39.899Z,21.66
2023-04-25T09:28:10.724Z,21.55
2023-04-25T09:30:40.775Z,21.37
2023-04-25T09:33:12.385Z,21.21
2023-04-25T09:35:45.740Z,21.12
2023-04-25T09:38:22.579Z,21.10
2023-04-25T09:40:53.021Z,20.96
2023-04-25T09:43:25.698Z,20.87
2023-04-25T09:45:58.732Z,20.79
2023-04-25T09:48:29.668Z,20.69
2023-04-25T09:51:15.202Z,20.64
2023-04-25T09:53:49.919Z,20.58
2023-04-25T09:56:21.066Z,20.53
2023-04-25T09:58:52.903Z,20.50
2023-04-25T10:01:21.850Z,20.55
2023-04-25T10:03:53.333Z,20.61
2023-04-25T10:06:47.825Z,20.64
2023-04-25T10:09:19.248Z,20.68
2023-04-25T10:11:51.893Z,20.66
2023-04-25T10:14:21.342Z,20.63
2023-04-25T10:16:52.686Z,20.59
2023-04-25T10:19:23.729Z,20.45
2023-04-25T10:22:13.283Z,20.32
2023-04-25T10:24:43.284Z,20.21
2023-04-25T10:27:12.263Z,20.16
2023-04-25T10:29:42.948Z,20.15
2023-04-25T10:32:12.237Z,20.17
2023-04-25T10:34:47.186Z,20.15
2023-04-25T10:37:16.113Z,20.14
2023-04-25T10:39:47.656Z,20.15
2023-04-25T10:42:18.646Z,20.14
2023-04-25T10:45:05.232Z,20.08
2023-04-25T10:47:37.757Z,19.98
2023-04-25T10:50:09.221Z,19.86
2023-04-25T10:52:40.693Z,19.76
2023-04-25T10:55:10.986Z,19.70
2023-04-25T10:57:47.293Z,19.64
2023-04-25T11:00:25.674Z,19.58
2023-04-25T11:02:54.847Z,19.54
2023-04-25T11:05:38.491Z,19.53
2023-04-25T11:08:08.312Z,19.57
2023-04-25T11:10:37.315Z,19.57
2023-04-25T11:13:07.863Z,19.58
2023-04-25T11:15:37.406Z,19.59
2023-04-25T11:18:08.272Z,19.57
2023-04-25T11:20:38.603Z,19.56
2023-04-25T11:23:08.960Z,19.55
2023-04-25T11:25:39.042Z,19.55
2023-04-25T11:28:08.478Z,19.54
2023-04-25T11:30:37.248Z,19.54
2023-04-25T11:33:06.502Z,19.50
2023-04-25T11:35:35.469Z,19.47
2023-04-25T11:38:04.346Z,19.43
2023-04-25T11:40:37.702Z,19.40
2023-04-25T11:43:06.842Z,19.39
2023-04-25T11:45:36.077Z,19.39
2023-04-25T11:48:35.902Z,19.38
2023-04-25T11:51:05.869Z,19.36
2023-04-25T11:53:36.265Z,19.28
2023-04-25T11:56:13.716Z,19.23
2023-04-25T11:59:03.933Z,19.23
2023-04-25T12:01:39.474Z,19.25
2023-04-25T12:04:25.508Z,19.25
2023-04-25T12:06:57.275Z,19.27
2023-04-25T12:09:39.355Z,19.28
2023-04-25T12:12:15.055Z,19.27
2023-04-25T12:14:50.075Z,19.27
2023-04-25T12:17:19.827Z,19.23
2023-04-25T12:19:49.774Z,19.20
2023-04-25T12:22:24.517Z,19.20
2023-04-25T12:24:54.493Z,19.22
2023-04-25T12:27:23.531Z,19.23
2023-04-25T12:29:56.843Z,19.13
2023-04-25T12:32:27.139Z,19.08
2023-04-25T12:34:56.457Z,19.04
2023-04-25T12:37:27.951Z,19.00
2023-04-25T12:39:57.169Z,18.96
2023-04-25T12:42:25.872Z,18.95
2023-04-25T12:44:55.617Z,18.95
2023-04-25T12:47:25.089Z,18.96
2023-04-25T12:49:54.261Z,19.02
2023-04-25T12:52:24.647Z,19.11
2023-04-25T12:54:55.131Z,19.20
2023-04-25T12:57:24.159Z,19.29
2023-04-25T12:59:53.570Z,19.36
2023-04-25T13:02:25.315Z,19.40
2023-04-25T13:04:54.711Z,19.44
2023-04-25T13:07:24.084Z,19.49
2023-04-25T13:09:52.538Z,19.51
2023-04-25T13:12:21.509Z,19.59
2023-04-25T13:14:50.727Z,19.71
2023-04-25T13:17:20.102Z,19.81
2023-04-25T13:19:49.081Z,19.92
2023-04-25T13:22:20.414Z,19.97
2023-04-25T13:24:49.269Z,20.03
2023-04-25T13:27:18.404Z,20.06
2023-04-25T13:29:47.078Z,20.03
2023-04-25T13:32:17.190Z,19.99
2023-04-25T13:34:46.151Z,19.92
2023-04-25T13:37:15.002Z,19.87
2023-04-25T13:39:43.652Z,19.84
2023-04-25T13:42:12.298Z,19.84
2023-04-25T13:44:41.044Z,19.80
2023-04-25T13:47:09.701Z,19.78
2023-04-25T13:49:38.430Z,19.78
2023-04-25T13:52:07.118Z,19.75
2023-04-25T13:54:36.034Z,19.61
2023-04-25T13:57:04.831Z,19.53
2023-04-25T13:59:33.709Z,19.46
2023-04-25T14:02:03.507Z,19.44
2023-04-25T14:04:33.226Z,19.42
2023-04-25T14:07:03.122Z,19.40
2023-04-25T14:09:31.718Z,19.37
2023-04-25T14:12:01.788Z,19.37
2023-04-25T14:14:30.811Z,19.33
2023-04-25T14:17:00.880Z,19.31
2023-04-25T14:19:30.319Z,19.30
2023-04-25T14:22:00.257Z,19.32
2023-04-25T14:24:29.408Z,19.36
2023-04-25T14:26:58.171Z,19.38
2023-04-25T14:29:27.206Z,19.37
2023-04-25T14:31:57.955Z,19.39
2023-04-25T14:34:28.492Z,19.40
2023-04-25T14:36:57.062Z,19.38
2023-04-25T14:39:25.753Z,19.36
2023-04-25T14:41:54.614Z,19.35
2023-04-25T14:44:23.402Z,19.34
2023-04-25T14:46:52.645Z,19.33
2023-04-25T14:49:21.499Z,19.33
2023-04-25T14:51:52.140Z,19.35
2023-04-25T14:54:20.737Z,19.35
2023-04-25T14:56:49.716Z,19.36
2023-04-25T14:59:18.338Z,19.36
2023-04-25T15:01:50.196Z,19.30
2023-04-25T15:04:21.808Z,19.25
2023-04-25T15:06:50.918Z,19.19
2023-04-25T15:09:20.253Z,19.16
2023-04-25T15:11:49.146Z,19.15
2023-04-25T15:14:18.708Z,19.17
2023-04-25T15:16:49.632Z,19.15
2023-04-25T15:19:19.631Z,19.14
2023-04-25T15:21:48.939Z,19.13
2023-04-25T15:24:17.800Z,19.13
2023-04-25T15:26:46.971Z,19.14
2023-04-25T15:29:16.617Z,19.15
2023-04-25T15:31:45.808Z,19.14
2023-04-25T15:34:15.040Z,19.11
2023-04-25T15:36:44.101Z,19.11
2023-04-25T15:39:14.212Z,19.11
2023-04-25T15:41:43.456Z,19.09
2023-04-25T15:44:12.705Z,19.07
2023-04-25T15:46:44.116Z,19.04
2023-04-25T15:49:12.962Z,19.02
2023-04-25T15:51:41.891Z,19.04
2023-04-25T15:54:10.698Z,19.05
2023-04-25T15:56:41.015Z,19.05
2023-04-25T15:59:09.896Z,19.04
2023-04-25T16:01:40.182Z,19.02
2023-04-25T16:04:10.455Z,18.98
2023-04-25T16:06:42.389Z,18.93
2023-04-25T16:09:11.891Z,18.90
2023-04-25T16:11:42.293Z,18.85
2023-04-25T16:14:12.016Z,18.81
2023-04-25T16:16:41.900Z,18.76
2023-04-25T16:19:11.855Z,18.74
2023-04-25T16:21:42.323Z,18.72
2023-04-25T16:24:11.328Z,18.69
2023-04-25T16:26:42.848Z,18.65
2023-04-25T16:29:14.580Z,18.63
2023-04-25T16:31:47.586Z,18.59
2023-04-25T16:34:17.699Z,18.56
2023-04-25T16:36:47.342Z,18.51
2023-04-25T16:39:17.970Z,18.46
2023-04-25T16:41:48.388Z,18.40
2023-04-25T16:44:17.461Z,18.36
2023-04-25T16:46:47.841Z,18.31
2023-04-25T16:49:17.856Z,18.26
2023-04-25T16:51:46.914Z,18.22
2023-04-25T16:54:16.929Z,18.16
2023-04-25T16:56:48.087Z,18.07
2023-04-25T16:59:18.196Z,17.98
2023-04-25T17:01:48.423Z,17.89
2023-04-25T17:04:17.918Z,17.80
2023-04-25T17:06:48.505Z,17.70
2023-04-25T17:09:18.830Z,17.60
2023-04-25T17:11:49.288Z,17.48
2023-04-25T17:14:19.183Z,17.37
2023-04-25T17:16:49.709Z,17.25
2023-04-25T17:19:18.830Z,17.14
2023-04-25T17:21:48.967Z,16.99
2023-04-25T17:24:18.017Z,16.92
2023-04-25T17:26:48.941Z,16.84
2023-04-25T17:29:19.426Z,16.75
2023-04-25T17:31:49.688Z,16.62
2023-04-25T17:34:19.973Z,16.49
2023-04-25T17:36:49.726Z,16.37
2023-04-25T17:39:19.838Z,16.26
2023-04-25T17:41:48.771Z,16.13
2023-04-25T17:44:17.981Z,16.02
2023-04-25T17:46:47.985Z,15.93
2023-04-25T17:49:17.239Z,15.82
2023-04-25T17:51:47.976Z,15.78
2023-04-25T17:54:18.533Z,15.73
2023-04-25T17:56:48.129Z,15.66
2023-04-25T17:59:18.993Z,15.54
2023-04-25T18:01:50.567Z,15.43
2023-04-25T18:04:20.311Z,15.36
2023-04-25T18:06:50.085Z,15.29
2023-04-25T18:09:23.133Z,15.23
2023-04-25T18:11:53.163Z,15.15
2023-04-25T18:14:23.899Z,15.07
2023-04-25T18:16:56.676Z,15.03
2023-04-25T18:19:26.290Z,14.97
2023-04-25T18:21:55.672Z,14.90
2023-04-25T18:24:28.480Z,14.83
2023-04-25T18:26:59.165Z,14.81
2023-04-25T18:29:33.385Z,14.77
2023-04-25T18:32:00.186Z,14.72
2023-04-25T18:34:29.998Z,14.66
2023-04-25T18:37:00.126Z,14.60
2023-04-25T18:39:28.784Z,14.53
2023-04-25T18:42:01.519Z,14.42
2023-04-25T18:44:31.091Z,14.32
2023-04-25T18:47:01.368Z,14.22
2023-04-25T18:49:30.647Z,14.16
2023-04-25T18:52:01.042Z,14.09
2023-04-25T18:54:32.297Z,14.03
2023-04-25T18:57:02.332Z,13.97
2023-04-25T18:59:31.627Z,13.92
2023-04-25T19:02:02.092Z,13.90
2023-04-25T19:04:31.846Z,13.86
2023-04-25T19:07:01.677Z,13.83
2023-04-25T19:09:33.197Z,13.81
2023-04-25T19:12:03.559Z,13.80
2023-04-25T19:14:33.283Z,13.78
2023-04-25T19:17:02.547Z,13.76
2023-04-25T19:19:33.062Z,13.74
2023-04-25T19:22:02.489Z,13.74
2023-04-25T19:24:34.647Z,13.75
2023-04-25T19:27:05.308Z,13.72
2023-04-25T19:29:36.104Z,13.67
2023-04-25T19:32:06.595Z,13.61
2023-04-25T19:34:36.957Z,13.57
2023-04-25T19:37:06.779Z,13.53
2023-04-25T19:39:36.600Z,13.50
2023-04-25T19:42:06.641Z,13.48
2023-04-25T19:44:37.180Z,13.45
2023-04-25T19:47:06.588Z,13.40
2023-04-25T19:49:37.406Z,13.36
2023-04-25T19:52:06.885Z,13.32
2023-04-25T19:54:36.591Z,13.26
2023-04-25T19:57:06.604Z,13.21
2023-04-25T19:59:36.628Z,13.16
2023-04-25T20:02:09.149Z,13.06
2023-04-25T20:04:41.640Z,12.96
2023-04-25T20:07:11.145Z,12.92
2023-04-25T20:09:42.077Z,12.90
2023-04-25T20:12:12.458Z,12.88
2023-04-25T20:14:41.976Z,12.87
2023-04-25T20:17:12.001Z,12.86
2023-04-25T20:19:40.715Z,12.84
2023-04-25T20:22:11.341Z,12.82
2023-04-25T20:24:40.791Z,12.80
2023-04-25T20:27:09.706Z,12.77
2023-04-25T20:29:38.586Z,12.77
2023-04-25T20:32:08.207Z,12.77
2023-04-25T20:34:37.820Z,12.72
2023-04-25T20:37:09.070Z,12.71
2023-04-25T20:39:39.477Z,12.70
2023-04-25T20:42:09.186Z,12.68
2023-04-25T20:44:41.015Z,12.65
2023-04-25T20:47:10.689Z,12.62
2023-04-25T20:49:39.962Z,12.63
2023-04-25T20:52:09.381Z,12.62
2023-04-25T20:54:38.780Z,12.64
2023-04-25T20:57:08.994Z,12.70
2023-04-25T20:59:37.974Z,12.76
2023-04-25T21:02:08.718Z,12.83
2023-04-25T21:04:39.560Z,12.89
2023-04-25T21:07:08.263Z,12.96
2023-04-25T21:09:36.863Z,13.08
2023-04-25T21:12:06.705Z,13.16
2023-04-25T21:14:36.146Z,13.23
2023-04-25T21:17:06.146Z,13.28
2023-04-25T21:19:37.056Z,13.33
2023-04-25T21:22:06.983Z,13.38
2023-04-25T21:24:37.209Z,13.46
2023-04-25T21:27:06.637Z,13.53
2023-04-25T21:29:36.674Z,13.58
2023-04-25T21:32:07.722Z,13.60
2023-04-25T21:34:37.076Z,13.62
2023-04-25T21:37:06.128Z,13.65
2023-04-25T21:39:35.112Z,13.67
2023-04-25T21:42:07.095Z,13.67
2023-04-25T21:44:36.567Z,13.67
2023-04-25T21:47:06.122Z,13.62
2023-04-25T21:49:35.129Z,13.61
2023-04-25T21:52:05.579Z,13.60
2023-04-25T21:54:36.555Z,13.58
2023-04-25T21:57:06.917Z,13.58
2023-04-25T21:59:36.481Z,13.56
2023-04-25T22:02:06.303Z,13.57
2023-04-25T22:04:36.565Z,13.58
2023-04-25T22:07:06.256Z,13.60
2023-04-25T22:09:47.375Z,13.60
2023-04-25T22:12:09.580Z,13.59
2023-04-25T22:14:41.678Z,13.59
2023-04-25T22:17:11.996Z,13.60
2023-04-25T22:19:43.668Z,13.58
2023-04-25T22:22:13.966Z,13.54
2023-04-25T22:24:43.745Z,13.50
2023-04-25T22:27:12.990Z,13.48
2023-04-25T22:29:41.711Z,13.45
2023-04-25T22:32:10.760Z,13.39
2023-04-25T22:34:42.950Z,13.36
2023-04-25T22:37:13.328Z,13.36
2023-04-25T22:39:42.396Z,13.37
2023-04-25T22:42:11.556Z,13.37
2023-04-25T22:44:41.278Z,13.38
2023-04-25T22:47:10.395Z,13.38
2023-04-25T22:49:39.658Z,13.32
2023-04-25T22:52:09.485Z,13.29
2023-04-25T22:54:39.166Z,13.29
2023-04-25T22:57:10.076Z,13.28
2023-04-25T22:59:40.041Z,13.26
2023-04-25T23:02:09.039Z,13.22
2023-04-25T23:04:39.456Z,13.17
2023-04-25T23:07:08.173Z,13.15
2023-04-25T23:09:37.340Z,13.10
2023-04-25T23:12:07.913Z,13.06
2023-04-25T23:14:36.872Z,12.98
2023-04-25T23:17:08.705Z,12.86
2023-04-25T23:19:38.404Z,12.78
2023-04-25T23:22:08.336Z,12.71
2023-04-25T23:24:40.129Z,12.62
2023-04-25T23:27:10.024Z,12.53
2023-04-25T23:29:40.283Z,12.47
2023-04-25T23:32:09.374Z,12.42
2023-04-25T23:34:38.846Z,12.33
2023-04-25T23:37:08.542Z,12.27
2023-04-25T23:39:39.363Z,12.18
2023-04-25T23:42:09.629Z,12.10
2023-04-25T23:44:39.801Z,12.03
2023-04-25T23:47:09.450Z,12.01
2023-04-25T23:49:38.732Z,11.93
2023-04-25T23:52:10.121Z,11.88
2023-04-25T23:54:40.452Z,11.83
2023-04-25T23:57:09.628Z,11.77
2023-04-25T23:59:39.035Z,11.77
